Archer City, Texas
Current Conditions -  °F | °C
As of 5:55 AM on Saturday 25 Oct 2014 (Local Time) from KCWC Reporting Station
Clear Clear  
Wind Chill: 61°   Ceiling: Unl
Heat Index: 61°   Visibility: 10mi
Dew Point: 56°   Wind: 5mph
Humidity: 83%   Direction: 250°WSW
Pressure: 30.09"   Gusts: NA
Location:  33.6°N, 98.63°W
Report Text: KCWC 251055Z AUTO 25004KT 10SM CLR 16/13 A3009 RMK AO2 T01620133
Loading
Personal Weather Stations






























Interactive Weather Map
Tropical Storm Tracking
New forecast layout! Learn more

10-Day Weather Forecast

Advertisements
Track Severe Weather on mobile